MP3/FLAC

‹ prev 2022-06-16 next › 707 release(s) · 59,71 GB · filter: day
Release Group Size Files Date ↓
Hunxho-XHOSEN-WEB-2022-ESG ESG 53,88 MB 13 2022-06-16
Hunxho-XHOSEN-16BIT-WEBFLAC-2022-ESGFLAC ESGFLAC 144,53 MB 13 2022-06-16
Dah_Chillin-Chouchoune_(feat_Lekil)-SINGLE-WEB-FR-2022-AZF AZF 5,39 MB 5 2022-06-16
Benny_Page_and_Sublow_Hz_and_Jasmine_Knight-Hold_You_Now-(NEW526A)-WEB-2022-PTC PTC 16,83 MB 5 2022-06-16
Lucinee-We_Trip_And_Roll__Remixed-VNR048-WEB-2022-WAV WAV 58,74 MB 8 2022-06-16
Monss-To_The_Edge-(JUMPED005)-SINGLE-WEB-2022-PTC PTC 9,98 MB 4 2022-06-16
Perc-Motorik-COM013-SINGLE-WEB-2022-WAV WAV 13,55 MB 5 2022-06-16
Shodan_and_Colossus-Dead_Already-(DA053S2)-SINGLE-WEB-2022-PTC PTC 11,12 MB 4 2022-06-16
New_Frames-Dread_Materialized-HVN013-WEB-2022-WAV WAV 54,85 MB 8 2022-06-16
Tommy_Steib-Dein_Ti_Amo_Am_Lago_Maggiore-WEB-DE-2022-ALPMP3 ALPMP3 117,12 MB 19 2022-06-16
DRYM_and_GXD_and_Christina_Novelli-Saving_Grace-(VAT017)-WEB-2022-AFO AFO 22,21 MB 6 2022-06-16
Jord-Mane-(NSP243)-SE-CD-FLAC-2022-86D 86D 297,10 MB 12 2022-06-16
Ellie_Lawson-Calling_You-(AMSTR058A)-WEB-2022-AFO AFO 58,50 MB 9 2022-06-16
Ito_Cekaj_and_Rasange-Poseidons_Serenade-(EAE016S)-WEB-2022-PTC PTC 41,58 MB 6 2022-06-16
Lens-Feels_Like-(SPEAR209)-SINGLE-WEB-2022-PTC PTC 7,77 MB 4 2022-06-16
Mahony-Poterasi_15-(MINDSHAKE091)-WEB-2022-PTC PTC 59,24 MB 7 2022-06-16
Exocrine-The_Hybrid_Suns-WEB-2022-ENTiTLED ENTiTLED 82,37 MB 13 2022-06-16
Marc_Brauner_and_Tender_Games-Concrete_Jungle-(SNFKC012)-WEB-2022-PTC PTC 69,97 MB 8 2022-06-16
Pandora-Let_Me_See_EP-(PICKLOCK036)-WEB-2022-PTC PTC 40,80 MB 7 2022-06-16
Pengo-Pengo_Remixes-(GRIDUK173)-WEB-2022-PTC PTC 21,27 MB 5 2022-06-16
Philth-Some_Philthy_VIPs_EP-(DISPHVIP001)-WEB-2022-PTC PTC 51,44 MB 7 2022-06-16
Tengu-Virtual_Reality_EP-(KRSKV054)-WEB-2022-PTC PTC 31,61 MB 6 2022-06-16
Turno_and_Gino-The_Swarm__Hysteria-(CRU211)-WEB-2022-PTC PTC 18,69 MB 5 2022-06-16
Host-Have_and_Have_Nots-(UNCH034D)-WEB-2022-PTC PTC 41,64 MB 7 2022-06-16
Chaos_Magic_feat._Caterina_Nix-Emerge-WEB-2022-ENTiTLED ENTiTLED 116,23 MB 15 2022-06-16
Fiorella_(FR)-Mental_Bavard-(NATBLACK373)-WEB-2022-PTC PTC 32,53 MB 5 2022-06-16
Jakob_De_Wittig-Galilelo-(IBOGATECH137)-WEB-2022-PTC PTC 62,40 MB 7 2022-06-16
Oliver_Rosemann-Olympian_32-(OLY032)-WEB-2022-PTC PTC 50,43 MB 7 2022-06-16
Gerard_H-Dark_Matter-(SONAXXRECORDS051)-WEB-2022-PTC PTC 56,10 MB 7 2022-06-16
Sramaana-Endless_Levitation-(SKRPT70)-WEB-2022-PTC PTC 79,83 MB 9 2022-06-16
Jordan_Brando-Vagabond-(SNF071)-WEB-2022-PTC PTC 89,34 MB 9 2022-06-16
Nazareken-Lanmou_Madjik-SINGLE-WEB-FR-2022-JAH JAH 10,09 MB 5 2022-06-16
DJ_Hybrid-Good_Vibes_EP-(BOOM006)-WEB-2022-PTC PTC 53,81 MB 8 2022-06-16
DJ_Trace-Lost_Entity-(DAT055)-WEB-2022-PTC PTC 54,97 MB 6 2022-06-16
The_Waterboys-An_Appointment_With_Mr_Yeats-REMASTERED-WEB-2022-ENRiCH ENRiCH 365,34 MB 47 2022-06-16
Grooveandyes_and_Invadia-Celestial_Echos-(XTR087)-WEB-2022-PTC PTC 30,45 MB 5 2022-06-16
VA-Chromologic_Vol._X-(CHROM071)-WEB-2022-PTC PTC 74,57 MB 8 2022-06-16
Talla_2xlc_pres_RRAW-Timeless-(TCO015)-WEB-2022-AFO AFO 20,69 MB 6 2022-06-16
Robert_Nickson_ft_Ryan_Leslie-Stratocast-(SGKL010)-WEB-2022-AFO AFO 31,36 MB 6 2022-06-16
Spencer_Krug-Twenty_Twenty_Twenty_Twenty_One-WEB-2022-ENRiCH ENRiCH 102,69 MB 14 2022-06-16
Lerio_Corrado-A38-(SNDST105)-WEB-2022-PTC PTC 65,87 MB 8 2022-06-16
Grey_Daze-The_Phoenix-WEB-2022-ENRiCH ENRiCH 92,61 MB 14 2022-06-16
Dott._Santafeo-Salgari-(LF260)-WEB-2022-PTC PTC 33,24 MB 5 2022-06-16
Oberst_and_Buchner-Marble_Arch-(HMLLP003S1)-SINGLE-WEB-2022-PTC PTC 16,54 MB 4 2022-06-16
Vatican-Ultra-WEB-2022-ENTiTLED ENTiTLED 85,33 MB 18 2022-06-16
The_Chariot-The_Fiancee-CD-FLAC-2007-FAiNT FAiNT 206,26 MB 14 2022-06-16
Linear_System-Kinetic_Energy_Remixed-(EDITSELECT138D)-WEB-2022-PTC PTC 52,04 MB 7 2022-06-16
Auntie_Flo_and_Sarathy_Korwar-Shruti_Dances-(MAKEM021)-WEB-2022-PTC PTC 63,42 MB 9 2022-06-16
Girls_In_Synthesis-Konsumrausch-EP-WEB-2022-ENRiCH ENRiCH 52,89 MB 9 2022-06-16
Mark_Wise-Power_Lines-(TRAPEZ248)-WEB-2022-PTC PTC 29,91 MB 5 2022-06-16